sensor_id;sensor_type;location;lat;lon;timestamp;temperature;humidity
13256;DHT22;37913;48.370;10.930;2023-09-18T00:00:24;16.10;99.90
13256;DHT22;37913;48.370;10.930;2023-09-18T00:02:51;16.10;99.90
13256;DHT22;37913;48.370;10.930;2023-09-18T00:05:18;16.00;99.90
13256;DHT22;37913;48.370;10.930;2023-09-18T00:07:46;16.00;99.90
13256;DHT22;37913;48.370;10.930;2023-09-18T00:10:13;16.00;99.90
13256;DHT22;37913;48.370;10.930;2023-09-18T00:12:40;16.00;99.90
13256;DHT22;37913;48.370;10.930;2023-09-18T00:15:08;16.10;99.90
13256;DHT22;37913;48.370;10.930;2023-09-18T00:17:35;16.00;99.90
13256;DHT22;37913;48.370;10.930;2023-09-18T00:20:03;16.00;99.90
13256;DHT22;37913;48.370;10.930;2023-09-18T00:22:33;16.00;99.90
13256;DHT22;37913;48.370;10.930;2023-09-18T00:25:02;16.10;99.90
13256;DHT22;37913;48.370;10.930;2023-09-18T00:27:29;16.00;99.90
13256;DHT22;37913;48.370;10.930;2023-09-18T00:29:55;16.10;99.90
13256;DHT22;37913;48.370;10.930;2023-09-18T00:32:22;16.10;99.90
13256;DHT22;37913;48.370;10.930;2023-09-18T00:34:49;16.10;99.90
13256;DHT22;37913;48.370;10.930;2023-09-18T00:37:16;16.10;99.90
13256;DHT22;37913;48.370;10.930;2023-09-18T00:39:43;16.00;99.90
13256;DHT22;37913;48.370;10.930;2023-09-18T00:42:11;16.00;99.90
13256;DHT22;37913;48.370;10.930;2023-09-18T00:44:39;16.00;99.90
13256;DHT22;37913;48.370;10.930;2023-09-18T00:47:07;15.90;99.90
13256;DHT22;37913;48.370;10.930;2023-09-18T00:49:34;15.90;99.90
13256;DHT22;37913;48.370;10.930;2023-09-18T00:52:03;15.80;99.90
13256;DHT22;37913;48.370;10.930;2023-09-18T00:54:31;15.90;99.90
13256;DHT22;37913;48.370;10.930;2023-09-18T00:57:00;15.80;99.90
13256;DHT22;37913;48.370;10.930;2023-09-18T00:59:28;15.80;99.90
13256;DHT22;37913;48.370;10.930;2023-09-18T01:01:55;15.80;99.90
13256;DHT22;37913;48.370;10.930;2023-09-18T01:04:22;15.90;99.90
13256;DHT22;37913;48.370;10.930;2023-09-18T01:06:50;15.90;99.90
13256;DHT22;37913;48.370;10.930;2023-09-18T01:09:20;16.00;99.90
13256;DHT22;37913;48.370;10.930;2023-09-18T01:11:54;15.90;99.90
13256;DHT22;37913;48.370;10.930;2023-09-18T01:14:29;15.90;99.90
13256;DHT22;37913;48.370;10.930;2023-09-18T01:16:59;16.00;99.90
13256;DHT22;37913;48.370;10.930;2023-09-18T01:19:41;15.90;99.90
13256;DHT22;37913;48.370;10.930;2023-09-18T01:22:10;15.80;99.90
13256;DHT22;37913;48.370;10.930;2023-09-18T01:24:39;15.70;99.90
13256;DHT22;37913;48.370;10.930;2023-09-18T01:27:09;15.60;99.90
13256;DHT22;37913;48.370;10.930;2023-09-18T01:29:36;15.50;99.90
13256;DHT22;37913;48.370;10.930;2023-09-18T01:32:03;15.50;99.90
13256;DHT22;37913;48.370;10.930;2023-09-18T01:34:32;15.50;99.90
13256;DHT22;37913;48.370;10.930;2023-09-18T01:37:03;15.60;99.90
13256;DHT22;37913;48.370;10.930;2023-09-18T01:39:31;15.70;99.90
13256;DHT22;37913;48.370;10.930;2023-09-18T01:42:02;15.70;99.90
13256;DHT22;37913;48.370;10.930;2023-09-18T01:44:29;15.50;99.90
13256;DHT22;37913;48.370;10.930;2023-09-18T01:46:58;15.50;99.90
13256;DHT22;37913;48.370;10.930;2023-09-18T01:49:28;15.40;99.90
13256;DHT22;37913;48.370;10.930;2023-09-18T01:51:56;15.30;99.90
13256;DHT22;37913;48.370;10.930;2023-09-18T01:54:23;15.40;99.90
13256;DHT22;37913;48.370;10.930;2023-09-18T01:56:50;15.50;99.90
13256;DHT22;37913;48.370;10.930;2023-09-18T01:59:19;15.60;99.90
13256;DHT22;37913;48.370;10.930;2023-09-18T02:01:46;15.50;99.90
13256;DHT22;37913;48.370;10.930;2023-09-18T02:04:13;15.50;99.90
13256;DHT22;37913;48.370;10.930;2023-09-18T02:06:40;15.50;99.90
13256;DHT22;37913;48.370;10.930;2023-09-18T02:09:07;15.60;99.90
13256;DHT22;37913;48.370;10.930;2023-09-18T02:11:36;15.70;99.90
13256;DHT22;37913;48.370;10.930;2023-09-18T02:14:04;15.80;99.90
13256;DHT22;37913;48.370;10.930;2023-09-18T02:16:33;15.80;99.90
13256;DHT22;37913;48.370;10.930;2023-09-18T02:19:01;15.80;99.90
13256;DHT22;37913;48.370;10.930;2023-09-18T02:21:28;15.80;99.90
13256;DHT22;37913;48.370;10.930;2023-09-18T02:23:55;15.80;99.90
13256;DHT22;37913;48.370;10.930;2023-09-18T02:26:24;15.70;99.90
13256;DHT22;37913;48.370;10.930;2023-09-18T02:28:52;15.60;99.90
13256;DHT22;37913;48.370;10.930;2023-09-18T02:31:19;15.50;99.90
13256;DHT22;37913;48.370;10.930;2023-09-18T02:33:48;15.50;99.90
13256;DHT22;37913;48.370;10.930;2023-09-18T02:36:15;15.40;99.90
13256;DHT22;37913;48.370;10.930;2023-09-18T02:38:42;15.40;99.90
13256;DHT22;37913;48.370;10.930;2023-09-18T02:41:09;15.40;99.90
13256;DHT22;37913;48.370;10.930;2023-09-18T02:43:36;15.50;99.90
13256;DHT22;37913;48.370;10.930;2023-09-18T02:46:04;15.50;99.90
13256;DHT22;37913;48.370;10.930;2023-09-18T02:48:31;15.50;99.90
13256;DHT22;37913;48.370;10.930;2023-09-18T02:50:59;15.50;99.90
13256;DHT22;37913;48.370;10.930;2023-09-18T02:53:27;15.50;99.90
13256;DHT22;37913;48.370;10.930;2023-09-18T02:55:56;15.50;99.90
13256;DHT22;37913;48.370;10.930;2023-09-18T02:58:23;15.40;99.90
13256;DHT22;37913;48.370;10.930;2023-09-18T03:00:52;15.40;99.90
13256;DHT22;37913;48.370;10.930;2023-09-18T03:03:19;15.30;99.90
13256;DHT22;37913;48.370;10.930;2023-09-18T03:05:46;15.30;99.90
13256;DHT22;37913;48.370;10.930;2023-09-18T03:08:15;15.30;99.90
13256;DHT22;37913;48.370;10.930;2023-09-18T03:10:43;15.20;99.90
13256;DHT22;37913;48.370;10.930;2023-09-18T03:13:11;15.20;99.90
13256;DHT22;37913;48.370;10.930;2023-09-18T03:15:38;15.10;99.90
13256;DHT22;37913;48.370;10.930;2023-09-18T03:18:06;15.10;99.90
13256;DHT22;37913;48.370;10.930;2023-09-18T03:20:34;15.00;99.90
13256;DHT22;37913;48.370;10.930;2023-09-18T03:23:01;15.00;99.90
13256;DHT22;37913;48.370;10.930;2023-09-18T03:25:30;15.10;99.90
13256;DHT22;37913;48.370;10.930;2023-09-18T03:27:57;15.00;99.90
13256;DHT22;37913;48.370;10.930;2023-09-18T03:30:24;14.90;99.90
13256;DHT22;37913;48.370;10.930;2023-09-18T03:32:52;14.90;99.90
13256;DHT22;37913;48.370;10.930;2023-09-18T03:35:20;14.90;99.90
13256;DHT22;37913;48.370;10.930;2023-09-18T03:37:48;14.80;99.90
13256;DHT22;37913;48.370;10.930;2023-09-18T03:40:15;14.80;99.90
13256;DHT22;37913;48.370;10.930;2023-09-18T03:42:44;14.80;99.90
13256;DHT22;37913;48.370;10.930;2023-09-18T03:45:11;14.80;99.90
13256;DHT22;37913;48.370;10.930;2023-09-18T03:47:39;14.80;99.90
13256;DHT22;37913;48.370;10.930;2023-09-18T03:50:07;14.70;99.90
13256;DHT22;37913;48.370;10.930;2023-09-18T03:52:34;14.70;99.90
13256;DHT22;37913;48.370;10.930;2023-09-18T03:55:01;14.70;99.90
13256;DHT22;37913;48.370;10.930;2023-09-18T03:57:28;14.60;99.90
13256;DHT22;37913;48.370;10.930;2023-09-18T03:59:56;14.60;99.90
13256;DHT22;37913;48.370;10.930;2023-09-18T04:02:25;14.60;99.90
13256;DHT22;37913;48.370;10.930;2023-09-18T04:04:53;14.60;99.90
13256;DHT22;37913;48.370;10.930;2023-09-18T04:07:20;14.60;99.90
13256;DHT22;37913;48.370;10.930;2023-09-18T04:09:47;14.60;99.90
13256;DHT22;37913;48.370;10.930;2023-09-18T04:12:14;14.50;99.90
13256;DHT22;37913;48.370;10.930;2023-09-18T04:14:41;14.50;99.90
13256;DHT22;37913;48.370;10.930;2023-09-18T04:17:10;14.40;99.90
13256;DHT22;37913;48.370;10.930;2023-09-18T04:19:37;14.50;99.90
13256;DHT22;37913;48.370;10.930;2023-09-18T04:22:04;14.50;99.90
13256;DHT22;37913;48.370;10.930;2023-09-18T04:24:31;14.50;99.90
13256;DHT22;37913;48.370;10.930;2023-09-18T04:26:57;14.50;99.90
13256;DHT22;37913;48.370;10.930;2023-09-18T04:29:24;14.40;99.90
13256;DHT22;37913;48.370;10.930;2023-09-18T04:31:51;14.60;99.90
13256;DHT22;37913;48.370;10.930;2023-09-18T04:34:21;14.60;99.90
13256;DHT22;37913;48.370;10.930;2023-09-18T04:36:48;14.50;99.90
13256;DHT22;37913;48.370;10.930;2023-09-18T04:39:14;14.50;99.90
13256;DHT22;37913;48.370;10.930;2023-09-18T04:41:41;14.60;99.90
13256;DHT22;37913;48.370;10.930;2023-09-18T04:44:08;14.60;99.90
13256;DHT22;37913;48.370;10.930;2023-09-18T04:46:38;14.60;99.90
13256;DHT22;37913;48.370;10.930;2023-09-18T04:49:07;14.60;99.90
13256;DHT22;37913;48.370;10.930;2023-09-18T04:51:37;14.60;99.90
13256;DHT22;37913;48.370;10.930;2023-09-18T04:54:07;14.60;99.90
13256;DHT22;37913;48.370;10.930;2023-09-18T04:56:34;14.70;99.90
13256;DHT22;37913;48.370;10.930;2023-09-18T04:59:01;14.60;99.90
13256;DHT22;37913;48.370;10.930;2023-09-18T05:01:27;14.70;99.90
13256;DHT22;37913;48.370;10.930;2023-09-18T05:03:55;14.70;99.90
13256;DHT22;37913;48.370;10.930;2023-09-18T05:06:22;14.80;99.90
13256;DHT22;37913;48.370;10.930;2023-09-18T05:08:51;14.70;99.90
13256;DHT22;37913;48.370;10.930;2023-09-18T05:11:19;14.70;99.90
13256;DHT22;37913;48.370;10.930;2023-09-18T05:13:46;14.70;99.90
13256;DHT22;37913;48.370;10.930;2023-09-18T05:16:13;14.70;99.90
13256;DHT22;37913;48.370;10.930;2023-09-18T05:18:40;14.70;99.90
13256;DHT22;37913;48.370;10.930;2023-09-18T05:21:08;14.80;99.90
13256;DHT22;37913;48.370;10.930;2023-09-18T05:23:35;14.90;99.90
13256;DHT22;37913;48.370;10.930;2023-09-18T05:26:03;15.00;99.90
13256;DHT22;37913;48.370;10.930;2023-09-18T05:28:30;15.20;99.90
13256;DHT22;37913;48.370;10.930;2023-09-18T05:30:57;15.30;99.90
13256;DHT22;37913;48.370;10.930;2023-09-18T05:33:24;15.50;99.90
13256;DHT22;37913;48.370;10.930;2023-09-18T05:35:51;15.70;99.90
13256;DHT22;37913;48.370;10.930;2023-09-18T05:38:18;15.90;99.90
13256;DHT22;37913;48.370;10.930;2023-09-18T05:40:44;15.90;99.90
13256;DHT22;37913;48.370;10.930;2023-09-18T05:43:14;16.10;99.90
13256;DHT22;37913;48.370;10.930;2023-09-18T05:45:41;16.20;99.90
13256;DHT22;37913;48.370;10.930;2023-09-18T05:48:07;16.30;99.90
13256;DHT22;37913;48.370;10.930;2023-09-18T05:50:35;16.40;99.90
13256;DHT22;37913;48.370;10.930;2023-09-18T05:53:03;16.60;99.90
13256;DHT22;37913;48.370;10.930;2023-09-18T05:55:30;16.70;99.90
13256;DHT22;37913;48.370;10.930;2023-09-18T05:57:57;16.90;99.90
13256;DHT22;37913;48.370;10.930;2023-09-18T06:00:26;17.20;99.90
13256;DHT22;37913;48.370;10.930;2023-09-18T06:02:53;17.30;99.90
13256;DHT22;37913;48.370;10.930;2023-09-18T06:05:20;17.50;99.90
13256;DHT22;37913;48.370;10.930;2023-09-18T06:07:48;17.50;99.90
13256;DHT22;37913;48.370;10.930;2023-09-18T06:10:15;17.60;99.90
13256;DHT22;37913;48.370;10.930;2023-09-18T06:12:43;17.60;99.90
13256;DHT22;37913;48.370;10.930;2023-09-18T06:15:11;17.60;99.90
13256;DHT22;37913;48.370;10.930;2023-09-18T06:17:41;17.80;99.90
13256;DHT22;37913;48.370;10.930;2023-09-18T06:20:09;18.00;99.90
13256;DHT22;37913;48.370;10.930;2023-09-18T06:22:36;18.20;99.90
13256;DHT22;37913;48.370;10.930;2023-09-18T06:25:04;18.30;99.90
13256;DHT22;37913;48.370;10.930;2023-09-18T06:27:34;18.30;99.90
13256;DHT22;37913;48.370;10.930;2023-09-18T06:30:02;18.20;99.90
13256;DHT22;37913;48.370;10.930;2023-09-18T06:32:29;18.10;99.90
13256;DHT22;37913;48.370;10.930;2023-09-18T06:34:57;18.10;99.90
13256;DHT22;37913;48.370;10.930;2023-09-18T06:37:24;18.10;99.90
13256;DHT22;37913;48.370;10.930;2023-09-18T06:39:51;18.40;99.90
13256;DHT22;37913;48.370;10.930;2023-09-18T06:42:18;18.90;15.30
13256;DHT22;37913;48.370;10.930;2023-09-18T06:44:45;19.40;1.00
13256;DHT22;37913;48.370;10.930;2023-09-18T06:47:12;20.20;1.00
13256;DHT22;37913;48.370;10.930;2023-09-18T06:49:40;20.90;1.00
13256;DHT22;37913;48.370;10.930;2023-09-18T06:52:09;21.80;99.90
13256;DHT22;37913;48.370;10.930;2023-09-18T06:54:36;22.60;1.00
13256;DHT22;37913;48.370;10.930;2023-09-18T06:57:03;23.10;1.00
13256;DHT22;37913;48.370;10.930;2023-09-18T06:59:30;22.80;1.00
13256;DHT22;37913;48.370;10.930;2023-09-18T07:01:59;21.50;1.00
13256;DHT22;37913;48.370;10.930;2023-09-18T07:04:26;21.20;1.00
13256;DHT22;37913;48.370;10.930;2023-09-18T07:06:53;21.60;99.90
13256;DHT22;37913;48.370;10.930;2023-09-18T07:09:23;21.60;99.90
13256;DHT22;37913;48.370;10.930;2023-09-18T07:11:51;21.80;99.90
13256;DHT22;37913;48.370;10.930;2023-09-18T07:14:18;22.50;99.90
13256;DHT22;37913;48.370;10.930;2023-09-18T07:16:45;23.50;99.90
13256;DHT22;37913;48.370;10.930;2023-09-18T07:19:12;24.00;99.90
13256;DHT22;37913;48.370;10.930;2023-09-18T07:21:42;24.30;99.90
13256;DHT22;37913;48.370;10.930;2023-09-18T07:24:10;25.70;1.00
13256;DHT22;37913;48.370;10.930;2023-09-18T07:26:44;27.00;1.00
13256;DHT22;37913;48.370;10.930;2023-09-18T07:29:12;27.40;1.00
13256;DHT22;37913;48.370;10.930;2023-09-18T07:31:40;27.00;1.00
13256;DHT22;37913;48.370;10.930;2023-09-18T07:34:08;26.40;1.00
13256;DHT22;37913;48.370;10.930;2023-09-18T07:36:35;25.90;1.00
13256;DHT22;37913;48.370;10.930;2023-09-18T07:39:02;25.00;99.90
13256;DHT22;37913;48.370;10.930;2023-09-18T07:41:29;25.60;99.90
13256;DHT22;37913;48.370;10.930;2023-09-18T07:43:58;26.50;1.00
13256;DHT22;37913;48.370;10.930;2023-09-18T07:46:25;27.80;99.90
13256;DHT22;37913;48.370;10.930;2023-09-18T07:48:52;29.10;99.90
13256;DHT22;37913;48.370;10.930;2023-09-18T07:51:19;30.30;99.90
13256;DHT22;37913;48.370;10.930;2023-09-18T07:53:46;30.70;93.10
13256;DHT22;37913;48.370;10.930;2023-09-18T07:56:13;30.50;66.00
13256;DHT22;37913;48.370;10.930;2023-09-18T07:58:39;30.40;84.70
13256;DHT22;37913;48.370;10.930;2023-09-18T08:01:08;30.80;55.70
13256;DHT22;37913;48.370;10.930;2023-09-18T08:03:35;30.70;44.10
13256;DHT22;37913;48.370;10.930;2023-09-18T08:06:02;29.40;88.10
13256;DHT22;37913;48.370;10.930;2023-09-18T08:08:31;29.00;99.90
13256;DHT22;37913;48.370;10.930;2023-09-18T08:11:07;28.30;99.90
13256;DHT22;37913;48.370;10.930;2023-09-18T08:13:35;27.90;99.90
13256;DHT22;37913;48.370;10.930;2023-09-18T08:16:02;28.00;99.90
13256;DHT22;37913;48.370;10.930;2023-09-18T08:18:31;27.70;99.90
13256;DHT22;37913;48.370;10.930;2023-09-18T08:20:57;27.40;99.90
13256;DHT22;37913;48.370;10.930;2023-09-18T08:23:26;27.90;99.90
13256;DHT22;37913;48.370;10.930;2023-09-18T08:25:53;29.10;99.90
13256;DHT22;37913;48.370;10.930;2023-09-18T08:28:22;30.60;76.70
13256;DHT22;37913;48.370;10.930;2023-09-18T08:30:48;32.00;9.50
13256;DHT22;37913;48.370;10.930;2023-09-18T08:33:16;33.60;1.00
13256;DHT22;37913;48.370;10.930;2023-09-18T08:35:44;33.70;1.00
13256;DHT22;37913;48.370;10.930;2023-09-18T08:38:12;34.60;1.00
13256;DHT22;37913;48.370;10.930;2023-09-18T08:40:40;35.50;1.00
13256;DHT22;37913;48.370;10.930;2023-09-18T08:43:08;36.40;1.00
13256;DHT22;37913;48.370;10.930;2023-09-18T08:45:43;37.00;1.00
13256;DHT22;37913;48.370;10.930;2023-09-18T08:48:11;35.50;1.00
13256;DHT22;37913;48.370;10.930;2023-09-18T08:50:39;32.40;1.00
13256;DHT22;37913;48.370;10.930;2023-09-18T08:53:08;29.90;1.00
13256;DHT22;37913;48.370;10.930;2023-09-18T08:55:35;29.80;1.00
13256;DHT22;37913;48.370;10.930;2023-09-18T08:58:02;31.50;1.00
13256;DHT22;37913;48.370;10.930;2023-09-18T09:00:29;32.90;1.00
13256;DHT22;37913;48.370;10.930;2023-09-18T09:02:56;33.50;1.00
13256;DHT22;37913;48.370;10.930;2023-09-18T09:05:24;32.30;1.00
13256;DHT22;37913;48.370;10.930;2023-09-18T09:07:51;31.60;1.00
13256;DHT22;37913;48.370;10.930;2023-09-18T09:10:20;29.30;1.00
13256;DHT22;37913;48.370;10.930;2023-09-18T09:12:48;31.70;1.00
13256;DHT22;37913;48.370;10.930;2023-09-18T09:15:14;30.70;1.00
13256;DHT22;37913;48.370;10.930;2023-09-18T09:17:42;30.10;1.00
13256;DHT22;37913;48.370;10.930;2023-09-18T09:20:10;29.70;1.00
13256;DHT22;37913;48.370;10.930;2023-09-18T09:22:37;30.00;1.00
13256;DHT22;37913;48.370;10.930;2023-09-18T09:25:23;29.40;1.00
13256;DHT22;37913;48.370;10.930;2023-09-18T09:27:52;29.00;3.60
13256;DHT22;37913;48.370;10.930;2023-09-18T09:30:20;30.20;1.00
13256;DHT22;37913;48.370;10.930;2023-09-18T09:32:48;30.50;1.00
13256;DHT22;37913;48.370;10.930;2023-09-18T09:35:23;31.50;1.00
13256;DHT22;37913;48.370;10.930;2023-09-18T09:37:53;29.80;1.00
13256;DHT22;37913;48.370;10.930;2023-09-18T09:40:23;29.30;1.00
13256;DHT22;37913;48.370;10.930;2023-09-18T09:42:52;29.40;1.00
13256;DHT22;37913;48.370;10.930;2023-09-18T09:45:20;29.80;1.00
13256;DHT22;37913;48.370;10.930;2023-09-18T09:47:47;29.50;1.00
13256;DHT22;37913;48.370;10.930;2023-09-18T09:50:15;29.10;1.00
13256;DHT22;37913;48.370;10.930;2023-09-18T09:52:45;28.80;1.00
13256;DHT22;37913;48.370;10.930;2023-09-18T09:55:18;28.00;62.80
13256;DHT22;37913;48.370;10.930;2023-09-18T09:57:52;30.10;1.00
13256;DHT22;37913;48.370;10.930;2023-09-18T10:00:20;32.10;1.00
13256;DHT22;37913;48.370;10.930;2023-09-18T10:03:00;33.80;1.00
13256;DHT22;37913;48.370;10.930;2023-09-18T10:05:30;33.70;1.00
13256;DHT22;37913;48.370;10.930;2023-09-18T10:08:03;32.50;1.00
13256;DHT22;37913;48.370;10.930;2023-09-18T10:10:33;30.30;1.00
13256;DHT22;37913;48.370;10.930;2023-09-18T10:13:09;28.90;1.00
13256;DHT22;37913;48.370;10.930;2023-09-18T10:15:38;28.10;1.00
13256;DHT22;37913;48.370;10.930;2023-09-18T10:18:07;28.10;1.00
13256;DHT22;37913;48.370;10.930;2023-09-18T10:20:40;27.50;1.00
13256;DHT22;37913;48.370;10.930;2023-09-18T10:23:19;27.00;20.50
13256;DHT22;37913;48.370;10.930;2023-09-18T10:25:53;26.90;49.20
13256;DHT22;37913;48.370;10.930;2023-09-18T10:28:24;25.50;99.90
13256;DHT22;37913;48.370;10.930;2023-09-18T10:30:56;25.20;99.90
13256;DHT22;37913;48.370;10.930;2023-09-18T10:33:24;25.20;99.90
13256;DHT22;37913;48.370;10.930;2023-09-18T10:35:53;24.60;99.90
13256;DHT22;37913;48.370;10.930;2023-09-18T10:38:20;24.90;99.90
13256;DHT22;37913;48.370;10.930;2023-09-18T10:40:48;24.10;99.90
13256;DHT22;37913;48.370;10.930;2023-09-18T10:43:16;25.20;1.00
13256;DHT22;37913;48.370;10.930;2023-09-18T10:45:45;25.50;99.90
13256;DHT22;37913;48.370;10.930;2023-09-18T10:48:13;25.90;99.90
13256;DHT22;37913;48.370;10.930;2023-09-18T10:50:42;26.30;99.90
13256;DHT22;37913;48.370;10.930;2023-09-18T10:53:11;26.00;99.90
13256;DHT22;37913;48.370;10.930;2023-09-18T10:55:38;25.20;1.00
13256;DHT22;37913;48.370;10.930;2023-09-18T10:58:06;24.30;99.90
13256;DHT22;37913;48.370;10.930;2023-09-18T11:00:33;23.90;1.00
13256;DHT22;37913;48.370;10.930;2023-09-18T11:03:14;23.30;99.90
13256;DHT22;37913;48.370;10.930;2023-09-18T11:05:44;23.50;99.90
13256;DHT22;37913;48.370;10.930;2023-09-18T11:08:28;23.00;1.00
13256;DHT22;37913;48.370;10.930;2023-09-18T11:11:02;22.90;1.00
13256;DHT22;37913;48.370;10.930;2023-09-18T11:13:37;22.80;1.00
13256;DHT22;37913;48.370;10.930;2023-09-18T11:16:32;22.60;1.00
13256;DHT22;37913;48.370;10.930;2023-09-18T11:19:12;22.50;99.90
13256;DHT22;37913;48.370;10.930;2023-09-18T11:21:43;22.10;99.90
13256;DHT22;37913;48.370;10.930;2023-09-18T11:24:16;21.60;1.00
13256;DHT22;37913;48.370;10.930;2023-09-18T11:26:47;21.70;1.00
13256;DHT22;37913;48.370;10.930;2023-09-18T11:29:16;21.50;99.90
13256;DHT22;37913;48.370;10.930;2023-09-18T11:31:46;21.20;99.90
13256;DHT22;37913;48.370;10.930;2023-09-18T11:34:20;20.60;1.00
13256;DHT22;37913;48.370;10.930;2023-09-18T11:36:47;19.60;49.30
13256;DHT22;37913;48.370;10.930;2023-09-18T11:39:32;19.00;99.90
13256;DHT22;37913;48.370;10.930;2023-09-18T11:42:07;19.00;99.90
13256;DHT22;37913;48.370;10.930;2023-09-18T11:44:35;18.90;99.90
13256;DHT22;37913;48.370;10.930;2023-09-18T11:47:08;19.10;99.90
13256;DHT22;37913;48.370;10.930;2023-09-18T11:49:40;18.80;99.90
13256;DHT22;37913;48.370;10.930;2023-09-18T11:52:09;18.40;99.90
13256;DHT22;37913;48.370;10.930;2023-09-18T11:54:39;17.90;99.90
13256;DHT22;37913;48.370;10.930;2023-09-18T11:57:06;17.40;99.90
13256;DHT22;37913;48.370;10.930;2023-09-18T11:59:36;17.30;99.90
13256;DHT22;37913;48.370;10.930;2023-09-18T12:02:04;17.10;99.90
13256;DHT22;37913;48.370;10.930;2023-09-18T12:04:34;17.00;99.90
13256;DHT22;37913;48.370;10.930;2023-09-18T12:07:03;16.90;99.90
13256;DHT22;37913;48.370;10.930;2023-09-18T12:09:30;16.90;99.90
13256;DHT22;37913;48.370;10.930;2023-09-18T12:11:58;16.90;99.90
13256;DHT22;37913;48.370;10.930;2023-09-18T12:14:30;16.90;99.90
13256;DHT22;37913;48.370;10.930;2023-09-18T12:16:58;16.90;99.90
13256;DHT22;37913;48.370;10.930;2023-09-18T12:19:25;17.00;99.90
13256;DHT22;37913;48.370;10.930;2023-09-18T12:21:52;16.70;99.90
13256;DHT22;37913;48.370;10.930;2023-09-18T12:24:22;16.50;99.90
13256;DHT22;37913;48.370;10.930;2023-09-18T12:26:50;16.70;99.90
13256;DHT22;37913;48.370;10.930;2023-09-18T12:29:18;16.70;99.90
13256;DHT22;37913;48.370;10.930;2023-09-18T12:31:45;16.80;99.90
13256;DHT22;37913;48.370;10.930;2023-09-18T12:34:14;16.50;99.90
13256;DHT22;37913;48.370;10.930;2023-09-18T12:36:42;16.60;99.90
13256;DHT22;37913;48.370;10.930;2023-09-18T12:39:10;16.70;99.90
13256;DHT22;37913;48.370;10.930;2023-09-18T12:41:39;16.80;99.90
13256;DHT22;37913;48.370;10.930;2023-09-18T12:44:06;16.80;99.90
13256;DHT22;37913;48.370;10.930;2023-09-18T12:46:34;16.90;99.90
13256;DHT22;37913;48.370;10.930;2023-09-18T12:49:18;16.90;99.90
13256;DHT22;37913;48.370;10.930;2023-09-18T12:51:55;16.80;99.90
13256;DHT22;37913;48.370;10.930;2023-09-18T12:54:35;16.70;99.90
13256;DHT22;37913;48.370;10.930;2023-09-18T12:57:04;16.90;99.90
13256;DHT22;37913;48.370;10.930;2023-09-18T12:59:32;16.90;99.90
13256;DHT22;37913;48.370;10.930;2023-09-18T13:01:59;16.80;99.90
13256;DHT22;37913;48.370;10.930;2023-09-18T13:04:26;16.80;99.90
13256;DHT22;37913;48.370;10.930;2023-09-18T13:07:04;16.90;99.90
13256;DHT22;37913;48.370;10.930;2023-09-18T13:09:30;17.10;99.90
13256;DHT22;37913;48.370;10.930;2023-09-18T13:11:57;16.90;99.90
13256;DHT22;37913;48.370;10.930;2023-09-18T13:14:25;16.80;99.90
13256;DHT22;37913;48.370;10.930;2023-09-18T13:16:52;16.90;99.90
13256;DHT22;37913;48.370;10.930;2023-09-18T13:19:19;16.80;99.90
13256;DHT22;37913;48.370;10.930;2023-09-18T13:21:47;16.70;99.90
13256;DHT22;37913;48.370;10.930;2023-09-18T13:24:29;16.80;99.90
13256;DHT22;37913;48.370;10.930;2023-09-18T13:26:57;16.80;99.90
13256;DHT22;37913;48.370;10.930;2023-09-18T13:29:26;16.80;99.90
13256;DHT22;37913;48.370;10.930;2023-09-18T13:31:53;16.80;99.90
13256;DHT22;37913;48.370;10.930;2023-09-18T13:34:20;16.60;99.90
13256;DHT22;37913;48.370;10.930;2023-09-18T13:36:48;16.80;99.90
13256;DHT22;37913;48.370;10.930;2023-09-18T13:39:15;16.70;99.90
13256;DHT22;37913;48.370;10.930;2023-09-18T13:41:42;16.50;99.90
13256;DHT22;37913;48.370;10.930;2023-09-18T13:44:09;16.70;99.90
13256;DHT22;37913;48.370;10.930;2023-09-18T13:46:38;16.90;99.90
13256;DHT22;37913;48.370;10.930;2023-09-18T13:49:05;17.30;99.90
13256;DHT22;37913;48.370;10.930;2023-09-18T13:51:32;17.00;99.90
13256;DHT22;37913;48.370;10.930;2023-09-18T13:53:59;17.60;99.90
13256;DHT22;37913;48.370;10.930;2023-09-18T13:56:26;17.80;99.90
13256;DHT22;37913;48.370;10.930;2023-09-18T13:58:54;17.80;99.90
13256;DHT22;37913;48.370;10.930;2023-09-18T14:01:22;17.90;99.90
13256;DHT22;37913;48.370;10.930;2023-09-18T14:03:51;18.00;99.90
13256;DHT22;37913;48.370;10.930;2023-09-18T14:06:19;17.70;99.90
13256;DHT22;37913;48.370;10.930;2023-09-18T14:08:46;17.80;99.90
13256;DHT22;37913;48.370;10.930;2023-09-18T14:11:13;17.70;99.90
13256;DHT22;37913;48.370;10.930;2023-09-18T14:13:40;17.90;99.90
13256;DHT22;37913;48.370;10.930;2023-09-18T14:16:07;18.00;99.90
13256;DHT22;37913;48.370;10.930;2023-09-18T14:18:36;17.90;99.90
13256;DHT22;37913;48.370;10.930;2023-09-18T14:21:05;17.70;99.90
13256;DHT22;37913;48.370;10.930;2023-09-18T14:23:34;17.90;99.90
13256;DHT22;37913;48.370;10.930;2023-09-18T14:26:01;18.00;99.90
13256;DHT22;37913;48.370;10.930;2023-09-18T14:28:28;17.90;99.90
13256;DHT22;37913;48.370;10.930;2023-09-18T14:30:55;17.80;99.90
13256;DHT22;37913;48.370;10.930;2023-09-18T14:33:25;17.50;99.90
13256;DHT22;37913;48.370;10.930;2023-09-18T14:35:52;17.40;99.90
13256;DHT22;37913;48.370;10.930;2023-09-18T14:38:21;17.50;99.90
13256;DHT22;37913;48.370;10.930;2023-09-18T14:40:48;17.60;99.90
13256;DHT22;37913;48.370;10.930;2023-09-18T14:43:15;17.80;99.90
13256;DHT22;37913;48.370;10.930;2023-09-18T14:45:41;18.00;99.90
13256;DHT22;37913;48.370;10.930;2023-09-18T14:48:09;18.20;99.90
13256;DHT22;37913;48.370;10.930;2023-09-18T14:50:36;18.60;99.90
13256;DHT22;37913;48.370;10.930;2023-09-18T14:53:03;18.80;99.90
13256;DHT22;37913;48.370;10.930;2023-09-18T14:55:34;18.60;99.90
13256;DHT22;37913;48.370;10.930;2023-09-18T14:58:01;18.40;99.90
13256;DHT22;37913;48.370;10.930;2023-09-18T15:00:28;18.20;99.90
13256;DHT22;37913;48.370;10.930;2023-09-18T15:02:55;18.10;99.90
13256;DHT22;37913;48.370;10.930;2023-09-18T15:05:26;18.60;99.90
13256;DHT22;37913;48.370;10.930;2023-09-18T15:07:53;19.10;99.90
13256;DHT22;37913;48.370;10.930;2023-09-18T15:10:20;19.00;99.90
13256;DHT22;37913;48.370;10.930;2023-09-18T15:12:49;18.80;99.90
13256;DHT22;37913;48.370;10.930;2023-09-18T15:15:16;18.70;99.90
13256;DHT22;37913;48.370;10.930;2023-09-18T15:17:43;18.40;99.90
13256;DHT22;37913;48.370;10.930;2023-09-18T15:20:10;18.50;99.90
13256;DHT22;37913;48.370;10.930;2023-09-18T15:22:38;18.50;99.90
13256;DHT22;37913;48.370;10.930;2023-09-18T15:25:06;18.40;99.90